Time;durP1;ratioP1;P1;durP2;ratioP2;P2;SDS_P1;SDS_P2;PMS_P1;PMS_P2;Temp;Humidity;BMP_temperature;BMP_pressure;BME280_temperature;BME280_humidity;BME280_pressure;Samples;Min_cycle;Max_cycle;Signal;HPM_P1;HPM_P2
2023/05/06 00:00:21;;;;;;;;;;;;;;;;;;4885529;29;19928;-58
2023/05/06 00:02:46;;;;;;;;;;;;;;;;;;4887504;29;19938;-57
2023/05/06 00:05:12;;;;;;;;;;;;;;;;;;4885255;29;20382;-61
2023/05/06 00:07:38;;;;;;;;;;;;;;;;;;4887743;29;19963;-58
2023/05/06 00:10:03;;;;;;;;;;;;;;;;;;4884142;29;20006;-59
2023/05/06 00:12:28;;;;;;;;;;;;;;;;;;4885880;29;19931;-60
2023/05/06 00:14:53;;;;;;;;;;;;;;;;;;4885759;29;19927;-58
2023/05/06 00:17:19;;;;;;;;;;;;;;;;;;4886538;29;19922;-62
2023/05/06 00:19:44;;;;;;;;;;;;;;;;;;4884946;29;19912;-56
2023/05/06 00:22:09;;;;;;;;;;;;;;;;;;4880882;29;19916;-58
2023/05/06 00:24:34;;;;;;;;;;;;;;;;;;4884633;29;19911;-57
2023/05/06 00:27:00;;;;;;;;;;;;;;;;;;4882149;29;19915;-58
2023/05/06 00:29:25;;;;;;;;;;;;;;;;;;4872207;29;20438;-56
2023/05/06 00:31:50;;;;;;;;;;;;;;;;;;4880918;29;19923;-58
2023/05/06 00:34:16;;;;;;;;;;;;;;;;;;4886825;29;19916;-58
2023/05/06 00:36:41;;;;;;;;;;;;;;;;;;4883396;29;19915;-57
2023/05/06 00:39:07;;;;;;;;;;;;;;;;;;4886627;29;19911;-57
2023/05/06 00:41:32;;;;;;;;;;;;;;;;;;4886853;29;19946;-58
2023/05/06 00:43:57;;;;;;;;;;;;;;;;;;4880161;29;20790;-58
2023/05/06 00:46:22;;;;;;;;;;;;;;;;;;4882131;29;20039;-58
2023/05/06 00:48:47;;;;;;;;;;;;;;;;;;4881338;29;20313;-59
2023/05/06 00:51:13;;;;;;;;;;;;;;;;;;4880057;29;19920;-56
2023/05/06 00:53:38;;;;;;;;;;;;;;;;;;4883572;29;19915;-59
2023/05/06 00:56:03;;;;;;;;;;;;;;;;;;4883514;29;19958;-58
2023/05/06 00:58:29;;;;;;;;;;;;;;;;;;4870866;29;19911;-57
2023/05/06 01:00:54;;;;;;;;;;;;;;;;;;4870602;29;19923;-58
2023/05/06 01:03:19;;;;;;;;;;;;;;;;;;4888937;23;19946;-55
2023/05/06 01:05:44;;;;;;;;;;;;;;;;;;4881521;29;19974;-58
2023/05/06 01:08:13;;;;;;;;;;;;;;;;;;4871423;29;20452;-58
2023/05/06 01:10:38;;;;;;;;;;;;;;;;;;4879202;29;19968;-58
2023/05/06 01:13:03;;;;;;;;;;;;;;;;;;4884121;29;19935;-57
2023/05/06 01:15:28;;;;;;;;;;;;;;;;;;4881898;29;19938;-57
2023/05/06 01:17:54;;;;;;;;;;;;;;;;;;4887791;29;19915;-56
2023/05/06 01:20:20;;;;;;;;;;;;;;;;;;4870268;29;19915;-57
2023/05/06 01:22:45;;;;;;;;;;;;;;;;;;4869980;29;19938;-57
2023/05/06 01:25:10;;;;;;;;;;;;;;;;;;4853802;29;20361;-58
2023/05/06 01:27:35;;;;;;;;;;;;;;;;;;4884786;29;19939;-57
2023/05/06 01:30:02;;;;;;;;;;;;;;;;;;4872889;29;19911;-57
2023/05/06 01:32:28;;;;;;;;;;;;;;;;;;4883972;29;20338;-56
2023/05/06 01:34:53;;;;;;;;;;;;;;;;;;4885907;29;20286;-57
2023/05/06 01:37:18;;;;;;;;;;;;;;;;;;4886908;29;19975;-58
2023/05/06 01:39:44;;;;;;;;;;;;;;;;;;4871317;29;19922;-56
2023/05/06 01:42:09;;;;;;;;;;;;;;;;;;4886679;29;20046;-56
2023/05/06 01:44:36;;;;;;;;;;;;;;;;;;4869265;29;19968;-57
2023/05/06 01:47:01;;;;;;;;;;;;;;;;;;4870702;29;19919;-58
2023/05/06 01:49:26;;;;;;;;;;;;;;;;;;4868827;29;19911;-55
2023/05/06 01:51:51;;;;;;;;;;;;;;;;;;4866555;29;19971;-57
2023/05/06 01:54:16;;;;;;;;;;;;;;;;;;4868949;29;19972;-57
2023/05/06 01:56:43;;;;;;;;;;;;;;;;;;4871309;29;20005;-58
2023/05/06 01:59:08;;;;;;;;;;;;;;;;;;4870273;29;20349;-58
2023/05/06 02:01:33;;;;;;;;;;;;;;;;;;4868529;29;19915;-57
2023/05/06 02:03:58;;;;;;;;;;;;;;;;;;4884142;29;19919;-57
2023/05/06 02:06:24;;;;;;;;;;;;;;;;;;4870634;29;19967;-55
2023/05/06 02:08:49;;;;;;;;;;;;;;;;;;4872616;29;19919;-57
2023/05/06 02:11:18;;;;;;;;;;;;;;;;;;4870077;29;20453;-59
2023/05/06 02:13:43;;;;;;;;;;;;;;;;;;4879617;29;19919;-55
2023/05/06 02:16:09;;;;;;;;;;;;;;;;;;4873840;29;19911;-57
2023/05/06 02:18:35;;;;;;;;;;;;;;;;;;4882503;29;19955;-57
2023/05/06 02:21:00;;;;;;;;;;;;;;;;;;4871326;29;19931;-57
2023/05/06 02:23:25;;;;;;;;;;;;;;;;;;4870862;29;19915;-53
2023/05/06 02:25:51;;;;;;;;;;;;;;;;;;4870192;29;19938;-58
2023/05/06 02:28:16;;;;;;;;;;;;;;;;;;4887036;29;20643;-57
2023/05/06 02:30:41;;;;;;;;;;;;;;;;;;4870159;29;19946;-57
2023/05/06 02:33:06;;;;;;;;;;;;;;;;;;4870089;29;19958;-58
2023/05/06 02:35:31;;;;;;;;;;;;;;;;;;4879876;29;20016;-57
2023/05/06 02:37:57;;;;;;;;;;;;;;;;;;4887032;29;19916;-57
2023/05/06 02:40:22;;;;;;;;;;;;;;;;;;4884341;29;19915;-58
2023/05/06 02:42:47;;;;;;;;;;;;;;;;;;4875085;29;19915;-58
2023/05/06 02:45:12;;;;;;;;;;;;;;;;;;4874664;29;20378;-57
2023/05/06 02:47:37;;;;;;;;;;;;;;;;;;4888041;29;19915;-57
2023/05/06 02:50:03;;;;;;;;;;;;;;;;;;4875866;29;19947;-54
2023/05/06 02:52:31;;;;;;;;;;;;;;;;;;4883791;29;20293;-57
2023/05/06 02:54:56;;;;;;;;;;;;;;;;;;4874040;29;19922;-57
2023/05/06 02:57:21;;;;;;;;;;;;;;;;;;4885632;29;19911;-58
2023/05/06 02:59:47;;;;;;;;;;;;;;;;;;4873990;29;19915;-58
2023/05/06 03:02:12;;;;;;;;;;;;;;;;;;4873669;29;20436;-56
2023/05/06 03:04:37;;;;;;;;;;;;;;;;;;4888957;29;20424;-57
2023/05/06 03:07:02;;;;;;;;;;;;;;;;;;4883499;29;20657;-56
2023/05/06 03:09:27;;;;;;;;;;;;;;;;;;4874740;29;19922;-57
2023/05/06 03:11:52;;;;;;;;;;;;;;;;;;4874914;29;20718;-57
2023/05/06 03:14:18;;;;;;;;;;;;;;;;;;4859900;29;19923;-57
2023/05/06 03:16:44;;;;;;;;;;;;;;;;;;4885005;29;19931;-56
2023/05/06 03:19:09;;;;;;;;;;;;;;;;;;4872285;29;19978;-56
2023/05/06 03:21:34;;;;;;;;;;;;;;;;;;4872014;29;19915;-57
2023/05/06 03:23:59;;;;;;;;;;;;;;;;;;4876889;29;19915;-57
2023/05/06 03:26:26;;;;;;;;;;;;;;;;;;4873420;29;19911;-57
2023/05/06 03:28:52;;;;;;;;;;;;;;;;;;4875754;29;19919;-57
2023/05/06 03:31:19;;;;;;;;;;;;;;;;;;4886015;29;19930;-57
2023/05/06 03:33:44;;;;;;;;;;;;;;;;;;4885104;29;19919;-58
2023/05/06 03:36:12;;;;;;;;;;;;;;;;;;4873196;29;20274;-57
2023/05/06 03:38:38;;;;;;;;;;;;;;;;;;4875087;29;20293;-57
2023/05/06 03:41:06;;;;;;;;;;;;;;;;;;4872912;29;19919;-57
2023/05/06 03:43:31;;;;;;;;;;;;;;;;;;4874050;29;19922;-57
2023/05/06 03:45:59;;;;;;;;;;;;;;;;;;4887666;29;19991;-57
2023/05/06 03:48:24;;;;;;;;;;;;;;;;;;4885028;29;20059;-56
2023/05/06 03:50:50;;;;;;;;;;;;;;;;;;4869713;29;19998;-56
2023/05/06 03:53:15;;;;;;;;;;;;;;;;;;4874061;29;19963;-57
2023/05/06 03:55:46;;;;;;;;;;;;;;;;;;4856619;29;19916;-57
2023/05/06 03:58:11;;;;;;;;;;;;;;;;;;4872652;29;19915;-58
2023/05/06 04:00:37;;;;;;;;;;;;;;;;;;4869765;29;20013;-58
2023/05/06 04:03:03;;;;;;;;;;;;;;;;;;4880900;29;20815;-57
2023/05/06 04:05:35;;;;;;;;;;;;;;;;;;4871138;29;19923;-58
2023/05/06 04:08:00;;;;;;;;;;;;;;;;;;4870567;29;19919;-58
2023/05/06 04:10:25;;;;;;;;;;;;;;;;;;4870398;29;20638;-57
2023/05/06 04:12:53;;;;;;;;;;;;;;;;;;4876038;29;19923;-57
2023/05/06 04:15:23;;;;;;;;;;;;;;;;;;4873087;29;20084;-58
2023/05/06 04:17:49;;;;;;;;;;;;;;;;;;4882764;29;20989;-56
2023/05/06 04:20:14;;;;;;;;;;;;;;;;;;4870593;29;19981;-58
2023/05/06 04:22:40;;;;;;;;;;;;;;;;;;4884370;29;19926;-58
2023/05/06 04:25:05;;;;;;;;;;;;;;;;;;4880824;29;19912;-58
2023/05/06 04:27:31;;;;;;;;;;;;;;;;;;4868295;29;19916;-57
2023/05/06 04:29:57;;;;;;;;;;;;;;;;;;4872306;29;20381;-59
2023/05/06 04:32:24;;;;;;;;;;;;;;;;;;4871699;29;19919;-57
2023/05/06 04:34:50;;;;;;;;;;;;;;;;;;4876322;29;20513;-57
2023/05/06 04:37:15;;;;;;;;;;;;;;;;;;4874093;29;20377;-57
2023/05/06 04:39:48;;;;;;;;;;;;;;;;;;4873904;29;19922;-57
2023/05/06 04:42:14;;;;;;;;;;;;;;;;;;4872819;29;19919;-58
2023/05/06 04:44:47;;;;;;;;;;;;;;;;;;4870973;29;19915;-58
2023/05/06 04:47:12;;;;;;;;;;;;;;;;;;4879922;29;19922;-58
2023/05/06 04:49:40;;;;;;;;;;;;;;;;;;4871568;29;19935;-57
2023/05/06 04:52:06;;;;;;;;;;;;;;;;;;4878874;29;19926;-57
2023/05/06 04:54:31;;;;;;;;;;;;;;;;;;4880469;29;19927;-58
2023/05/06 04:56:57;;;;;;;;;;;;;;;;;;4871157;29;19922;-58
2023/05/06 04:59:22;;;;;;;;;;;;;;;;;;4869972;29;20490;-57
2023/05/06 05:01:47;;;;;;;;;;;;;;;;;;4869476;29;19922;-57
2023/05/06 05:04:12;;;;;;;;;;;;;;;;;;4870709;29;19927;-56
2023/05/06 05:06:38;;;;;;;;;;;;;;;;;;4870917;29;20772;-56
2023/05/06 05:09:03;;;;;;;;;;;;;;;;;;4871480;29;19926;-56
2023/05/06 05:11:29;;;;;;;;;;;;;;;;;;4866862;29;19923;-57
2023/05/06 05:13:56;;;;;;;;;;;;;;;;;;4879835;29;19952;-58
2023/05/06 05:16:21;;;;;;;;;;;;;;;;;;4869335;29;19927;-57
2023/05/06 05:18:46;;;;;;;;;;;;;;;;;;4872994;29;20274;-57
2023/05/06 05:21:16;;;;;;;;;;;;;;;;;;4853391;29;20384;-56
2023/05/06 05:23:42;;;;;;;;;;;;;;;;;;4866797;29;19916;-57
2023/05/06 05:26:07;;;;;;;;;;;;;;;;;;4870119;29;20341;-58
2023/05/06 05:28:32;;;;;;;;;;;;;;;;;;4869304;29;19915;-56
2023/05/06 05:31:00;;;;;;;;;;;;;;;;;;4865482;29;19927;-57
2023/05/06 05:33:25;;;;;;;;;;;;;;;;;;4867845;29;19923;-59
2023/05/06 05:35:50;;;;;;;;;;;;;;;;;;4883283;29;20488;-57
2023/05/06 05:38:16;;;;;;;;;;;;;;;;;;4870076;29;19916;-57
2023/05/06 05:40:42;;;;;;;;;;;;;;;;;;4870328;29;20340;-57
2023/05/06 05:43:07;;;;;;;;;;;;;;;;;;4867589;29;20447;-58
2023/05/06 05:45:36;;;;;;;;;;;;;;;;;;4866617;29;19915;-57
2023/05/06 05:48:01;;;;;;;;;;;;;;;;;;4869830;29;20362;-56
2023/05/06 05:50:26;;;;;;;;;;;;;;;;;;4883047;29;20346;-56
2023/05/06 05:52:53;;;;;;;;;;;;;;;;;;4870221;29;19927;-57
2023/05/06 05:55:19;;;;;;;;;;;;;;;;;;4869823;29;19923;-58
2023/05/06 05:57:45;;;;;;;;;;;;;;;;;;4871572;29;19916;-56
2023/05/06 06:00:11;;;;;;;;;;;;;;;;;;4869398;29;19983;-57
2023/05/06 06:02:42;;;;;;;;;;;;;;;;;;4881550;29;19915;-57
2023/05/06 06:05:07;;;;;;;;;;;;;;;;;;4870979;29;20189;-57
2023/05/06 06:07:32;;;;;;;;;;;;;;;;;;4884201;29;19915;-58
2023/05/06 06:09:57;;;;;;;;;;;;;;;;;;4868966;29;19918;-58
2023/05/06 06:12:22;;;;;;;;;;;;;;;;;;4880509;29;19940;-57
2023/05/06 06:14:48;;;;;;;;;;;;;;;;;;4869149;29;20308;-57
2023/05/06 06:17:15;;;;;;;;;;;;;;;;;;4878740;29;19922;-57
2023/05/06 06:19:41;;;;;;;;;;;;;;;;;;4868962;29;19919;-57
2023/05/06 06:22:06;;;;;;;;;;;;;;;;;;4868266;29;19920;-57
2023/05/06 06:24:33;;;;;;;;;;;;;;;;;;4878262;29;19958;-56
2023/05/06 06:26:58;;;;;;;;;;;;;;;;;;4867355;29;20322;-57
2023/05/06 06:29:25;;;;;;;;;;;;;;;;;;4878697;29;20338;-57
2023/05/06 06:31:50;;;;;;;;;;;;;;;;;;4880931;29;19919;-56
2023/05/06 06:34:16;;;;;;;;;;;;;;;;;;4868499;29;19919;-57
2023/05/06 06:36:43;;;;;;;;;;;;;;;;;;4877785;29;20590;-57
2023/05/06 06:39:09;;;;;;;;;;;;;;;;;;4867363;29;19934;-58
2023/05/06 06:41:34;;;;;;;;;;;;;;;;;;4880837;29;19962;-58
2023/05/06 06:43:59;;;;;;;;;;;;;;;;;;4882720;29;19919;-58
2023/05/06 06:46:27;;;;;;;;;;;;;;;;;;4869828;29;19919;-58
2023/05/06 06:48:52;;;;;;;;;;;;;;;;;;4879656;29;19935;-58
2023/05/06 06:51:18;;;;;;;;;;;;;;;;;;4866392;29;19939;-57
2023/05/06 06:53:43;;;;;;;;;;;;;;;;;;4868970;29;19979;-57
2023/05/06 06:56:08;;;;;;;;;;;;;;;;;;4871493;29;19911;-58
2023/05/06 06:58:33;;;;;;;;;;;;;;;;;;4884632;29;19961;-58
2023/05/06 07:00:58;;;;;;;;;;;;;;;;;;4881822;29;19911;-57
2023/05/06 07:03:24;;;;;;;;;;;;;;;;;;4881646;29;19930;-58
2023/05/06 07:05:49;;;;;;;;;;;;;;;;;;4868437;29;19938;-58
2023/05/06 07:08:15;;;;;;;;;;;;;;;;;;4880709;29;19919;-57
2023/05/06 07:10:41;;;;;;;;;;;;;;;;;;4872149;29;19943;-57
2023/05/06 07:13:06;;;;;;;;;;;;;;;;;;4882950;29;19923;-58
2023/05/06 07:15:31;;;;;;;;;;;;;;;;;;4868340;29;19931;-57
2023/05/06 07:17:56;;;;;;;;;;;;;;;;;;4881010;29;19963;-57
2023/05/06 07:20:22;;;;;;;;;;;;;;;;;;4880064;29;19923;-58
2023/05/06 07:22:47;;;;;;;;;;;;;;;;;;4884562;29;19912;-56
2023/05/06 07:25:12;;;;;;;;;;;;;;;;;;4888009;29;20247;-56
2023/05/06 07:27:37;;;;;;;;;;;;;;;;;;4883494;29;19915;-58
2023/05/06 07:30:02;;;;;;;;;;;;;;;;;;4880592;29;19920;-56
2023/05/06 07:32:28;;;;;;;;;;;;;;;;;;4883602;29;19931;-57
2023/05/06 07:34:53;;;;;;;;;;;;;;;;;;4884237;29;19922;-59
2023/05/06 07:37:18;;;;;;;;;;;;;;;;;;4885629;29;19930;-58
2023/05/06 07:39:43;;;;;;;;;;;;;;;;;;4885482;29;20440;-58
2023/05/06 07:42:11;;;;;;;;;;;;;;;;;;4885994;29;19946;-58
2023/05/06 07:44:37;;;;;;;;;;;;;;;;;;4884886;29;19947;-58
2023/05/06 07:47:02;;;;;;;;;;;;;;;;;;4883406;29;20029;-58
2023/05/06 07:49:29;;;;;;;;;;;;;;;;;;4885231;29;20377;-58
2023/05/06 07:51:56;;;;;;;;;;;;;;;;;;4883918;29;20299;-59
2023/05/06 07:54:21;;;;;;;;;;;;;;;;;;4886218;29;19926;-59
2023/05/06 07:56:46;;;;;;;;;;;;;;;;;;4884080;29;19919;-58
2023/05/06 07:59:11;;;;;;;;;;;;;;;;;;4884569;29;20005;-58
2023/05/06 08:01:37;;;;;;;;;;;;;;;;;;4872422;29;19915;-56
2023/05/06 08:04:02;;;;;;;;;;;;;;;;;;4885293;29;20282;-58
2023/05/06 08:06:27;;;;;;;;;;;;;;;;;;4867607;29;19915;-57
2023/05/06 08:08:52;;;;;;;;;;;;;;;;;;4884003;29;19998;-58
2023/05/06 08:11:17;;;;;;;;;;;;;;;;;;4884744;29;19926;-57
2023/05/06 08:13:43;;;;;;;;;;;;;;;;;;4882427;29;19916;-58
2023/05/06 08:16:10;;;;;;;;;;;;;;;;;;4884627;29;19942;-58
2023/05/06 08:18:38;;;;;;;;;;;;;;;;;;4884995;29;19919;-57
2023/05/06 08:21:04;;;;;;;;;;;;;;;;;;4885563;29;19990;-57
2023/05/06 08:23:29;;;;;;;;;;;;;;;;;;4885993;29;19922;-57
2023/05/06 08:25:55;;;;;;;;;;;;;;;;;;4884081;29;19918;-58
2023/05/06 08:28:20;;;;;;;;;;;;;;;;;;4903445;29;20375;-59
2023/05/06 08:30:47;;;;;;;;;;;;;;;;;;4890157;29;19915;-58
2023/05/06 08:33:12;;;;;;;;;;;;;;;;;;4901249;29;20349;-57
2023/05/06 08:35:37;;;;;;;;;;;;;;;;;;4884982;29;20350;-59
2023/05/06 08:38:02;;;;;;;;;;;;;;;;;;4890144;29;19915;-57
2023/05/06 08:40:28;;;;;;;;;;;;;;;;;;4893819;29;19950;-59
2023/05/06 08:42:53;;;;;;;;;;;;;;;;;;4902093;29;20444;-57
2023/05/06 08:45:18;;;;;;;;;;;;;;;;;;4903139;29;19915;-58
2023/05/06 08:47:43;;;;;;;;;;;;;;;;;;4902358;29;20222;-58
2023/05/06 08:50:09;;;;;;;;;;;;;;;;;;4901309;29;20373;-57
2023/05/06 08:52:34;;;;;;;;;;;;;;;;;;4901352;29;19923;-58
2023/05/06 08:55:03;;;;;;;;;;;;;;;;;;4894822;29;20319;-57
2023/05/06 08:57:28;;;;;;;;;;;;;;;;;;4904101;29;20022;-57
2023/05/06 08:59:54;;;;;;;;;;;;;;;;;;4903483;29;19919;-58
2023/05/06 09:02:20;;;;;;;;;;;;;;;;;;4904072;29;20038;-58
2023/05/06 09:04:45;;;;;;;;;;;;;;;;;;4904003;29;20349;-58
2023/05/06 09:07:10;;;;;;;;;;;;;;;;;;4904617;29;19943;-59
2023/05/06 09:09:36;;;;;;;;;;;;;;;;;;4904564;29;19916;-58
2023/05/06 09:12:01;;;;;;;;;;;;;;;;;;4899243;29;20038;-57
2023/05/06 09:14:26;;;;;;;;;;;;;;;;;;4887077;29;19935;-58
2023/05/06 09:16:52;;;;;;;;;;;;;;;;;;4898459;29;19950;-59
2023/05/06 09:19:17;;;;;;;;;;;;;;;;;;4901494;29;19915;-58
2023/05/06 09:21:42;;;;;;;;;;;;;;;;;;4901289;29;19915;-58
2023/05/06 09:24:07;;;;;;;;;;;;;;;;;;4897399;29;19926;-58
2023/05/06 09:26:33;;;;;;;;;;;;;;;;;;4898456;29;19998;-58
2023/05/06 09:28:58;;;;;;;;;;;;;;;;;;4902376;29;19922;-58
2023/05/06 09:31:24;;;;;;;;;;;;;;;;;;4901148;29;19958;-58
2023/05/06 09:33:50;;;;;;;;;;;;;;;;;;4902535;29;19927;-58
2023/05/06 09:36:15;;;;;;;;;;;;;;;;;;4900449;29;19923;-58
2023/05/06 09:38:40;;;;;;;;;;;;;;;;;;4899984;29;19943;-58
2023/05/06 09:41:05;;;;;;;;;;;;;;;;;;4900283;29;20484;-58
2023/05/06 09:43:30;;;;;;;;;;;;;;;;;;4901655;29;19957;-59
2023/05/06 09:45:56;;;;;;;;;;;;;;;;;;4899963;29;19922;-58
2023/05/06 09:48:21;;;;;;;;;;;;;;;;;;4899192;29;19919;-57
2023/05/06 09:50:46;;;;;;;;;;;;;;;;;;4900497;29;20020;-58
2023/05/06 09:53:16;;;;;;;;;;;;;;;;;;4901228;29;20519;-58
2023/05/06 09:55:41;;;;;;;;;;;;;;;;;;4899342;29;20409;-58
2023/05/06 09:58:07;;;;;;;;;;;;;;;;;;4899442;29;19942;-59
2023/05/06 10:00:32;;;;;;;;;;;;;;;;;;4897778;29;19919;-58
2023/05/06 10:02:57;;;;;;;;;;;;;;;;;;4888488;29;20526;-58
2023/05/06 10:05:22;;;;;;;;;;;;;;;;;;4901205;29;19922;-57
2023/05/06 10:07:48;;;;;;;;;;;;;;;;;;4898688;29;19922;-59
2023/05/06 10:10:13;;;;;;;;;;;;;;;;;;4901944;29;20351;-59
2023/05/06 10:12:39;;;;;;;;;;;;;;;;;;4901444;29;19923;-58
2023/05/06 10:15:04;;;;;;;;;;;;;;;;;;4898897;29;19926;-58
2023/05/06 10:17:29;;;;;;;;;;;;;;;;;;4902124;29;19919;-58
2023/05/06 10:19:54;;;;;;;;;;;;;;;;;;4898708;29;19919;-59
2023/05/06 10:22:20;;;;;;;;;;;;;;;;;;4900662;29;19919;-59
2023/05/06 10:24:46;;;;;;;;;;;;;;;;;;4900499;29;20353;-59
2023/05/06 10:27:11;;;;;;;;;;;;;;;;;;4900623;29;19915;-58
2023/05/06 10:29:36;;;;;;;;;;;;;;;;;;4899772;29;20559;-59
2023/05/06 10:32:02;;;;;;;;;;;;;;;;;;4900456;29;20287;-59
2023/05/06 10:34:28;;;;;;;;;;;;;;;;;;4900460;29;19919;-60
2023/05/06 10:36:53;;;;;;;;;;;;;;;;;;4898693;29;19926;-59
2023/05/06 10:39:18;;;;;;;;;;;;;;;;;;4900414;29;20349;-60
2023/05/06 10:41:43;;;;;;;;;;;;;;;;;;4900207;29;19990;-59
2023/05/06 10:44:08;;;;;;;;;;;;;;;;;;4900001;29;19969;-58
2023/05/06 10:46:34;;;;;;;;;;;;;;;;;;4897579;29;19911;-59
2023/05/06 10:48:59;;;;;;;;;;;;;;;;;;4901324;29;20290;-61
2023/05/06 10:51:24;;;;;;;;;;;;;;;;;;4887268;29;19973;-58
2023/05/06 10:53:50;;;;;;;;;;;;;;;;;;4886583;29;19915;-59
2023/05/06 10:56:15;;;;;;;;;;;;;;;;;;4898840;29;19919;-57
2023/05/06 10:58:40;;;;;;;;;;;;;;;;;;4903210;29;19962;-57
2023/05/06 11:01:05;;;;;;;;;;;;;;;;;;4905849;29;19916;-58
2023/05/06 11:03:31;;;;;;;;;;;;;;;;;;4902421;29;20284;-57
2023/05/06 11:05:56;;;;;;;;;;;;;;;;;;4901702;29;19943;-57
2023/05/06 11:08:21;;;;;;;;;;;;;;;;;;4904070;29;19915;-57
2023/05/06 11:10:46;;;;;;;;;;;;;;;;;;4904636;29;20276;-58
2023/05/06 11:13:12;;;;;;;;;;;;;;;;;;4892724;29;20284;-58
2023/05/06 11:15:37;;;;;;;;;;;;;;;;;;4904845;29;20324;-58
2023/05/06 11:18:03;;;;;;;;;;;;;;;;;;4900924;29;19916;-59
2023/05/06 11:20:29;;;;;;;;;;;;;;;;;;4902141;29;19919;-58
2023/05/06 11:22:55;;;;;;;;;;;;;;;;;;4905321;29;19921;-58
2023/05/06 11:25:20;;;;;;;;;;;;;;;;;;4903944;29;19923;-59
2023/05/06 11:27:45;;;;;;;;;;;;;;;;;;4903613;29;19919;-59
2023/05/06 11:30:10;;;;;;;;;;;;;;;;;;4905989;29;19974;-58
2023/05/06 11:32:35;;;;;;;;;;;;;;;;;;4901407;29;19987;-59
2023/05/06 11:35:01;;;;;;;;;;;;;;;;;;4902701;29;20014;-59
2023/05/06 11:37:29;;;;;;;;;;;;;;;;;;4899765;29;20448;-58
2023/05/06 11:39:54;;;;;;;;;;;;;;;;;;4902848;29;19917;-58
2023/05/06 11:42:20;;;;;;;;;;;;;;;;;;4904325;29;19915;-59
2023/05/06 11:44:46;;;;;;;;;;;;;;;;;;4902851;29;19926;-59
2023/05/06 11:47:11;;;;;;;;;;;;;;;;;;4888304;29;19918;-59
2023/05/06 11:49:37;;;;;;;;;;;;;;;;;;4899432;29;20301;-59
2023/05/06 11:52:02;;;;;;;;;;;;;;;;;;4901710;29;19919;-59
2023/05/06 11:54:27;;;;;;;;;;;;;;;;;;4903019;29;20285;-59
2023/05/06 11:56:52;;;;;;;;;;;;;;;;;;4890620;29;19915;-58
2023/05/06 11:59:18;;;;;;;;;;;;;;;;;;4903650;29;20645;-59
2023/05/06 12:01:43;;;;;;;;;;;;;;;;;;4903511;29;19918;-60
2023/05/06 12:04:08;;;;;;;;;;;;;;;;;;4899847;29;19919;-57
2023/05/06 12:06:33;;;;;;;;;;;;;;;;;;4901307;29;20001;-59
2023/05/06 12:08:59;;;;;;;;;;;;;;;;;;4902065;29;19923;-57
2023/05/06 12:11:24;;;;;;;;;;;;;;;;;;4901127;29;20591;-59
2023/05/06 12:13:49;;;;;;;;;;;;;;;;;;4899967;29;20310;-60
2023/05/06 12:16:14;;;;;;;;;;;;;;;;;;4904721;29;19941;-60
2023/05/06 12:18:39;;;;;;;;;;;;;;;;;;4902724;29;19911;-60
2023/05/06 12:21:06;;;;;;;;;;;;;;;;;;4899149;29;19926;-58
2023/05/06 12:23:31;;;;;;;;;;;;;;;;;;4903808;29;19915;-59
2023/05/06 12:25:56;;;;;;;;;;;;;;;;;;4902865;29;19915;-58
2023/05/06 12:28:22;;;;;;;;;;;;;;;;;;4905412;29;19953;-58
2023/05/06 12:30:47;;;;;;;;;;;;;;;;;;4903324;29;19970;-59
2023/05/06 12:33:12;;;;;;;;;;;;;;;;;;4903835;29;19930;-59
2023/05/06 12:35:38;;;;;;;;;;;;;;;;;;4902271;29;19915;-58
2023/05/06 12:38:06;;;;;;;;;;;;;;;;;;4903373;29;19914;-58
2023/05/06 12:40:31;;;;;;;;;;;;;;;;;;4903361;29;19918;-57
2023/05/06 12:42:59;;;;;;;;;;;;;;;;;;4906496;29;19915;-60
2023/05/06 12:45:24;;;;;;;;;;;;;;;;;;4904943;29;19915;-58
2023/05/06 12:47:50;;;;;;;;;;;;;;;;;;4902302;29;20014;-58
2023/05/06 12:50:15;;;;;;;;;;;;;;;;;;4903607;29;20638;-57
2023/05/06 12:52:40;;;;;;;;;;;;;;;;;;4904924;29;20288;-58
2023/05/06 12:55:05;;;;;;;;;;;;;;;;;;4903324;29;20555;-58
2023/05/06 12:57:31;;;;;;;;;;;;;;;;;;4892148;29;19915;-58
2023/05/06 12:59:56;;;;;;;;;;;;;;;;;;4901156;29;19997;-58
2023/05/06 13:02:21;;;;;;;;;;;;;;;;;;4904539;29;19914;-60
2023/05/06 13:04:46;;;;;;;;;;;;;;;;;;4901888;29;19942;-58
2023/05/06 13:07:11;;;;;;;;;;;;;;;;;;4888665;29;20296;-60
2023/05/06 13:09:37;;;;;;;;;;;;;;;;;;4895348;29;19994;-59
2023/05/06 13:12:03;;;;;;;;;;;;;;;;;;4901005;29;20392;-58
2023/05/06 13:14:29;;;;;;;;;;;;;;;;;;4903161;29;19929;-58
2023/05/06 13:16:54;;;;;;;;;;;;;;;;;;4900817;29;19930;-60
2023/05/06 13:19:19;;;;;;;;;;;;;;;;;;4900085;29;20334;-59
2023/05/06 13:21:45;;;;;;;;;;;;;;;;;;4901878;29;19926;-59
2023/05/06 13:24:10;;;;;;;;;;;;;;;;;;4905745;29;19950;-58
2023/05/06 13:26:36;;;;;;;;;;;;;;;;;;4903312;29;19915;-59
2023/05/06 13:29:01;;;;;;;;;;;;;;;;;;4901782;29;20014;-59
2023/05/06 13:31:27;;;;;;;;;;;;;;;;;;4901432;29;19914;-58
2023/05/06 13:33:52;;;;;;;;;;;;;;;;;;4904577;29;19926;-59
2023/05/06 13:36:17;;;;;;;;;;;;;;;;;;4900546;29;20516;-58
2023/05/06 13:38:42;;;;;;;;;;;;;;;;;;4906335;29;19974;-57
2023/05/06 13:41:07;;;;;;;;;;;;;;;;;;4903592;29;19953;-60
2023/05/06 13:43:33;;;;;;;;;;;;;;;;;;4904687;29;19932;-59
2023/05/06 13:45:58;;;;;;;;;;;;;;;;;;4903628;29;19915;-60
2023/05/06 13:48:23;;;;;;;;;;;;;;;;;;4902316;29;19918;-59
2023/05/06 13:50:48;;;;;;;;;;;;;;;;;;4897307;29;19994;-59
2023/05/06 13:53:16;;;;;;;;;;;;;;;;;;4889144;29;19933;-59
2023/05/06 13:55:42;;;;;;;;;;;;;;;;;;4893633;29;19923;-60
2023/05/06 13:58:07;;;;;;;;;;;;;;;;;;4902186;29;19915;-59
2023/05/06 14:00:32;;;;;;;;;;;;;;;;;;4898314;29;19982;-59
2023/05/06 14:02:57;;;;;;;;;;;;;;;;;;4897369;29;19947;-60
2023/05/06 14:05:22;;;;;;;;;;;;;;;;;;4882894;29;19919;-59
2023/05/06 14:07:48;;;;;;;;;;;;;;;;;;4898094;29;20581;-59
2023/05/06 14:10:13;;;;;;;;;;;;;;;;;;4900043;29;19915;-59
2023/05/06 14:12:38;;;;;;;;;;;;;;;;;;4895603;29;19919;-59
2023/05/06 14:15:03;;;;;;;;;;;;;;;;;;4896378;29;19958;-58
2023/05/06 14:17:29;;;;;;;;;;;;;;;;;;4900092;29;20042;-59
2023/05/06 14:19:55;;;;;;;;;;;;;;;;;;4892319;29;20451;-59
2023/05/06 14:22:20;;;;;;;;;;;;;;;;;;4904437;29;20050;-60
2023/05/06 14:24:45;;;;;;;;;;;;;;;;;;4900071;29;20291;-59
2023/05/06 14:27:10;;;;;;;;;;;;;;;;;;4899000;29;19915;-59
2023/05/06 14:29:35;;;;;;;;;;;;;;;;;;4896684;29;20022;-60
2023/05/06 14:32:01;;;;;;;;;;;;;;;;;;4898188;29;19919;-59
2023/05/06 14:34:26;;;;;;;;;;;;;;;;;;4905048;29;19922;-58
2023/05/06 14:36:51;;;;;;;;;;;;;;;;;;4900219;29;20408;-59
2023/05/06 14:39:16;;;;;;;;;;;;;;;;;;4894100;29;19947;-61
2023/05/06 14:41:41;;;;;;;;;;;;;;;;;;4906227;29;19923;-58
2023/05/06 14:44:07;;;;;;;;;;;;;;;;;;4899518;29;19911;-58
2023/05/06 14:46:32;;;;;;;;;;;;;;;;;;4904686;29;19994;-59
2023/05/06 14:48:57;;;;;;;;;;;;;;;;;;4886486;29;19926;-60
2023/05/06 14:51:22;;;;;;;;;;;;;;;;;;4885494;29;19954;-59
2023/05/06 14:53:48;;;;;;;;;;;;;;;;;;4904682;29;19925;-58
2023/05/06 14:56:13;;;;;;;;;;;;;;;;;;4885897;29;19918;-59
2023/05/06 14:58:39;;;;;;;;;;;;;;;;;;4897403;29;20353;-58
2023/05/06 15:01:04;;;;;;;;;;;;;;;;;;4899120;29;20593;-59
2023/05/06 15:03:29;;;;;;;;;;;;;;;;;;4895131;29;19923;-59
2023/05/06 15:05:55;;;;;;;;;;;;;;;;;;4903096;29;19961;-58
2023/05/06 15:08:20;;;;;;;;;;;;;;;;;;4897878;29;19915;-58
2023/05/06 15:10:45;;;;;;;;;;;;;;;;;;4901158;29;20010;-58
2023/05/06 15:13:10;;;;;;;;;;;;;;;;;;4898490;29;19922;-59
2023/05/06 15:15:35;;;;;;;;;;;;;;;;;;4900159;29;20009;-60
2023/05/06 15:18:01;;;;;;;;;;;;;;;;;;4891885;29;19911;-59
2023/05/06 15:20:26;;;;;;;;;;;;;;;;;;4895354;29;19915;-59
2023/05/06 15:22:51;;;;;;;;;;;;;;;;;;4902444;29;19982;-59
2023/05/06 15:25:16;;;;;;;;;;;;;;;;;;4898846;29;19957;-60
2023/05/06 15:27:44;;;;;;;;;;;;;;;;;;4897139;29;20542;-61
2023/05/06 15:30:10;;;;;;;;;;;;;;;;;;4901843;29;20015;-60
2023/05/06 15:32:35;;;;;;;;;;;;;;;;;;4895508;29;19998;-59
2023/05/06 15:35:03;;;;;;;;;;;;;;;;;;4904641;29;19921;-58
2023/05/06 15:37:28;;;;;;;;;;;;;;;;;;4897881;29;19911;-59
2023/05/06 15:39:54;;;;;;;;;;;;;;;;;;4894063;29;19915;-58
2023/05/06 15:42:19;;;;;;;;;;;;;;;;;;4902192;29;20409;-58
2023/05/06 15:44:44;;;;;;;;;;;;;;;;;;4895828;29;19915;-59
2023/05/06 15:47:09;;;;;;;;;;;;;;;;;;4904312;29;19922;-59
2023/05/06 15:49:35;;;;;;;;;;;;;;;;;;4894708;29;19915;-58
2023/05/06 15:52:00;;;;;;;;;;;;;;;;;;4895714;29;20281;-59
2023/05/06 15:54:25;;;;;;;;;;;;;;;;;;4904378;29;19947;-59
2023/05/06 15:56:50;;;;;;;;;;;;;;;;;;4896447;29;19990;-60
2023/05/06 15:59:15;;;;;;;;;;;;;;;;;;4901993;29;19919;-60
2023/05/06 16:01:41;;;;;;;;;;;;;;;;;;4900202;29;19923;-61
2023/05/06 16:04:06;;;;;;;;;;;;;;;;;;4886083;29;20424;-59
2023/05/06 16:06:31;;;;;;;;;;;;;;;;;;4901483;29;20290;-58
2023/05/06 16:08:56;;;;;;;;;;;;;;;;;;4896707;29;19954;-57
2023/05/06 16:11:22;;;;;;;;;;;;;;;;;;4903817;29;19915;-59
2023/05/06 16:13:47;;;;;;;;;;;;;;;;;;4896311;29;19946;-58
2023/05/06 16:16:12;;;;;;;;;;;;;;;;;;4896548;29;19915;-59
2023/05/06 16:18:37;;;;;;;;;;;;;;;;;;4900195;29;20498;-58
2023/05/06 16:21:03;;;;;;;;;;;;;;;;;;4895704;29;19915;-58
2023/05/06 16:23:28;;;;;;;;;;;;;;;;;;4901539;29;20543;-58
2023/05/06 16:25:53;;;;;;;;;;;;;;;;;;4899072;29;20374;-58
2023/05/06 16:28:18;;;;;;;;;;;;;;;;;;4897814;29;19942;-59
2023/05/06 16:30:45;;;;;;;;;;;;;;;;;;4884327;29;19938;-59
2023/05/06 16:33:11;;;;;;;;;;;;;;;;;;4896227;29;20620;-57